Blowing Rock, NC

1:43 PM EDT on July 02, 2015 (GMT -0400)
Blowing Rock School | | Change Station
CLOSE
Current Station
Personal Weather Station
Location: Blowing Rock, NC
Elevation: 3540 ft
Nearby Weather Stations

Elev 3540 ft 36.13 °N, 81.68 °W | Updated 9 minutes ago

Overcast
Overcast
68.3 °F
Feels Like 68.3 °F
N
3.0
Wind Variable Wind from ESE
Gusts 7.0 mph

Today
High -- | Low -- °F
--% Chance of Precip.
Yesterday
High -- | Low -- °F
Precip. -- in
6:13 AM 8:47 PM
Waxing Gibbous, 99% visible
Pressure 30.05 in
Visibility 10.0 miles
Clouds Scattered Clouds 2100 ft
Scattered Clouds 3400 ft
Scattered Clouds 4200 ft
Dew Point 62 °F
Humidity 81%
Rainfall 0.00 in
Snow Depth Not available.
UV 9 out of 12
Pollen .50 out of 12
Air Quality Not available.
Flu Activity Not available.
METAR KTNB 021614Z AUTO 27009G14KT 10SM -RA SCT021 SCT034 SCT042 20/15 A3005 RMK AO2

More Conditions Fewer Conditions

Pressure 30.05 in
Visibility 10.0 miles
Clouds Scattered Clouds 2100 ft
Scattered Clouds 3400 ft
Scattered Clouds 4200 ft
Dew Point 62 °F
Humidity 81%
Rainfall 0.00 in
Snow Depth Not available.
UV 9 out of 12
Pollen .50 out of 12
Air Quality Not available.
Flu Activity Not available.
METAR KTNB 021614Z AUTO 27009G14KT 10SM -RA SCT021 SCT034 SCT042 20/15 A3005 RMK AO2

More Conditions Fewer Conditions

10-Day Weather Forecast

×

Almanac

Astronomy

Jul. 02, 2015 Rise Set
Actual Time
Civil Twilight
Nautical Twilight
Astronomical Twilight
Moon
Length of Visible Light
Length of Day
Tomorrow will be .
, % of the Moon is Illuminated

Today's Extremes

State Highs State Lows

Community

WunderPhotos

Upload Photos

1,834,506 photos uploaded!

WunderBlogs® & News

Nearby

Air Quality

  Air Quality AQ Index Pollutant
Not available.

Snow Depth

Station Depth Elevation

Earthquake Activity

City Distance Mag. Time & Date
Minimum magnitude displayed is 2.5.

Coastal Water Temperatures

Place Temperature

Stations

Nearby Weather Stations

Station Location Temp. Windchill Dew Point Humidity Wind Precip. Elev Updated Type